createdAt,value
2018-11-01T00:02:09.193Z,97551.00
2018-11-01T00:06:11.517Z,97547.00
2018-11-01T00:10:14.027Z,97544.00
2018-11-01T00:14:16.325Z,97539.00
2018-11-01T00:18:19.418Z,97537.00
2018-11-01T00:22:21.748Z,97549.00
2018-11-01T00:26:24.111Z,97550.00
2018-11-01T00:30:26.455Z,97539.00
2018-11-01T00:34:28.753Z,97539.00
2018-11-01T00:38:31.284Z,97543.00
2018-11-01T00:42:34.193Z,97546.00
2018-11-01T00:46:36.659Z,97543.00
2018-11-01T00:50:38.992Z,97556.00
2018-11-01T00:54:41.346Z,97553.00
2018-11-01T00:58:43.630Z,97557.00
2018-11-01T01:02:45.974Z,97551.00
2018-11-01T01:06:48.363Z,97554.00
2018-11-01T01:10:50.651Z,97554.00
2018-11-01T01:14:53.003Z,97554.00
2018-11-01T01:18:55.436Z,97545.00
2018-11-01T01:22:57.620Z,97533.00
2018-11-01T01:27:00.025Z,97540.00
2018-11-01T01:31:02.325Z,97538.00
2018-11-01T01:35:05.594Z,97536.00
2018-11-01T01:39:08.560Z,97535.00
2018-11-01T01:43:10.964Z,97534.00
2018-11-01T01:47:13.258Z,97527.00
2018-11-01T01:51:15.634Z,97536.00
2018-11-01T01:55:17.912Z,97531.00
2018-11-01T01:59:20.200Z,97520.00
2018-11-01T02:03:22.478Z,97527.00
2018-11-01T02:07:24.804Z,97533.00
2018-11-01T02:11:27.127Z,97524.00
2018-11-01T02:15:29.438Z,97515.00
2018-11-01T02:19:31.771Z,97485.00
2018-11-01T02:23:34.168Z,97469.00
2018-11-01T02:27:42.279Z,97468.00
2018-11-01T02:31:44.575Z,97459.00
2018-11-01T02:35:46.927Z,97445.00
2018-11-01T02:39:49.250Z,97458.00
2018-11-01T02:43:51.568Z,97460.00
2018-11-01T02:47:53.887Z,97461.00
2018-11-01T02:51:56.139Z,97471.00
2018-11-01T02:55:58.441Z,97474.00
2018-11-01T03:00:00.763Z,97459.00
2018-11-01T03:04:03.126Z,97453.00
2018-11-01T03:08:05.452Z,97460.00
2018-11-01T03:12:07.839Z,97444.00
2018-11-01T03:16:10.063Z,97422.00
2018-11-01T03:20:12.760Z,97430.00
2018-11-01T03:24:15.054Z,97431.00
2018-11-01T03:28:17.473Z,97436.00
2018-11-01T03:32:19.771Z,97421.00
2018-11-01T03:36:22.017Z,97415.00
2018-11-01T03:40:24.335Z,97421.00
2018-11-01T03:44:26.604Z,97415.00
2018-11-01T03:48:28.863Z,97413.00
2018-11-01T03:52:31.196Z,97409.00
2018-11-01T03:56:33.468Z,97393.00
2018-11-01T04:00:35.811Z,97391.00
2018-11-01T04:04:38.146Z,97396.00
2018-11-01T04:08:40.494Z,97400.00
2018-11-01T04:12:42.842Z,97398.00
2018-11-01T04:16:45.194Z,97396.00
2018-11-01T04:20:47.494Z,97389.00
2018-11-01T04:24:49.759Z,97389.00
2018-11-01T04:28:52.104Z,97386.00
2018-11-01T04:32:54.454Z,97375.00
2018-11-01T04:36:56.733Z,97373.00
2018-11-01T04:40:59.068Z,97371.00
2018-11-01T04:45:01.404Z,97377.00
2018-11-01T04:49:03.749Z,97388.00
2018-11-01T04:53:06.067Z,97382.00
2018-11-01T04:57:08.395Z,97382.00
2018-11-01T05:01:10.754Z,97377.00
2018-11-01T05:05:13.058Z,97383.00
2018-11-01T05:09:15.337Z,97355.00
2018-11-01T05:13:17.664Z,97372.00
2018-11-01T05:17:20.052Z,97370.00
2018-11-01T05:21:22.431Z,97349.00
2018-11-01T05:25:24.813Z,97345.00
2018-11-01T05:29:27.278Z,97331.00
2018-11-01T05:33:29.594Z,97331.00
2018-11-01T05:37:31.933Z,97342.00
2018-11-01T05:41:34.309Z,97344.00
2018-11-01T05:45:36.635Z,97352.00
2018-11-01T05:49:38.982Z,97365.00
2018-11-01T05:55:10.781Z,97357.00
2018-11-01T05:59:13.118Z,97363.00
2018-11-01T06:03:15.448Z,97357.00
2018-11-01T06:07:22.290Z,97361.00
2018-11-01T06:11:24.642Z,97360.00
2018-11-01T06:15:26.916Z,97367.00
2018-11-01T06:19:29.256Z,97368.00
2018-11-01T06:23:31.717Z,97379.00
2018-11-01T06:27:34.001Z,97375.00
2018-11-01T06:31:36.435Z,97361.00
2018-11-01T06:35:56.346Z,97348.00
2018-11-01T06:39:58.686Z,97349.00
2018-11-01T06:44:01.032Z,97346.00
2018-11-01T06:48:03.362Z,97352.00
2018-11-01T06:52:05.723Z,97352.00
2018-11-01T06:56:08.029Z,97372.00
2018-11-01T07:00:13.324Z,97365.00
2018-11-01T07:04:15.617Z,97370.00
2018-11-01T07:08:18.030Z,97378.00
2018-11-01T07:12:20.341Z,97372.00
2018-11-01T07:16:22.660Z,97378.00
2018-11-01T07:20:24.963Z,97361.00
2018-11-01T07:24:27.263Z,97358.00
2018-11-01T07:28:29.693Z,97355.00
2018-11-01T07:32:32.016Z,97349.00
2018-11-01T07:36:34.309Z,97337.00
2018-11-01T07:40:36.748Z,97339.00
2018-11-01T07:44:39.030Z,97338.00
2018-11-01T07:48:41.421Z,97339.00
2018-11-01T07:52:43.783Z,97336.00
2018-11-01T07:56:46.102Z,97339.00
2018-11-01T08:00:48.445Z,97334.00
2018-11-01T08:04:50.795Z,97332.00
2018-11-01T08:08:53.207Z,97341.00
2018-11-01T08:12:55.501Z,97336.00
2018-11-01T08:16:57.800Z,97342.00
2018-11-01T08:21:00.309Z,97343.00
2018-11-01T08:25:02.440Z,97339.00
2018-11-01T08:29:04.857Z,97340.00
2018-11-01T08:33:07.154Z,97327.00
2018-11-01T08:37:09.516Z,97325.00
2018-11-01T08:41:11.790Z,97319.00
2018-11-01T08:45:15.196Z,97317.00
2018-11-01T08:49:17.535Z,97312.00
2018-11-01T08:53:19.869Z,97321.00
2018-11-01T08:57:22.264Z,97334.00
2018-11-01T09:01:24.676Z,97332.00
2018-11-01T09:05:26.985Z,97326.00
2018-11-01T09:09:29.286Z,97315.00
2018-11-01T09:13:31.586Z,97326.00
2018-11-01T09:17:34.032Z,97334.00
2018-11-01T09:21:36.370Z,97320.00
2018-11-01T09:25:38.695Z,97334.00
2018-11-01T09:29:41.044Z,97334.00
2018-11-01T09:33:43.435Z,97343.00
2018-11-01T09:37:45.730Z,97329.00
2018-11-01T09:41:48.039Z,97354.00
2018-11-01T09:45:50.375Z,97349.00
2018-11-01T09:49:52.704Z,97350.00
2018-11-01T09:53:55.071Z,97354.00
2018-11-01T09:57:57.328Z,97358.00
2018-11-01T10:01:59.660Z,97358.00
2018-11-01T10:06:01.964Z,97360.00
2018-11-01T10:10:06.543Z,97362.00
2018-11-01T10:14:09.030Z,97354.00
2018-11-01T10:18:11.778Z,97356.00
2018-11-01T10:22:13.668Z,97368.00
2018-11-01T10:26:16.041Z,97366.00
2018-11-01T10:30:19.711Z,97384.00
2018-11-01T10:34:22.234Z,97379.00
2018-11-01T10:38:24.561Z,97372.00
2018-11-01T10:42:27.016Z,97359.00
2018-11-01T10:46:29.387Z,97344.00
2018-11-01T10:50:31.732Z,97343.00
2018-11-01T10:54:34.123Z,97334.00
2018-11-01T10:58:36.620Z,97322.00
2018-11-01T11:02:40.053Z,97328.00
2018-11-01T11:06:42.405Z,97328.00
2018-11-01T11:10:44.659Z,97323.00
2018-11-01T11:14:47.108Z,97316.00
2018-11-01T11:18:49.405Z,97325.00
2018-11-01T11:22:51.830Z,97319.00
2018-11-01T11:26:54.154Z,97297.00
2018-11-01T11:30:56.519Z,97281.00
2018-11-01T11:34:58.824Z,97264.00
2018-11-01T11:39:01.229Z,97260.00
2018-11-01T11:43:03.555Z,97256.00
2018-11-01T11:47:05.912Z,97259.00
2018-11-01T11:51:08.255Z,97246.00
2018-11-01T11:55:10.891Z,97270.00
2018-11-01T11:59:13.204Z,97282.00
2018-11-01T12:03:15.639Z,97287.00
2018-11-01T12:07:18.013Z,97282.00
2018-11-01T12:11:20.415Z,97261.00
2018-11-01T12:15:22.755Z,97275.00
2018-11-01T12:19:25.063Z,97287.00
2018-11-01T12:23:27.418Z,97301.00
2018-11-01T12:27:29.849Z,97308.00
2018-11-01T12:31:32.169Z,97294.00
2018-11-01T12:35:34.586Z,97283.00
2018-11-01T12:39:36.819Z,97275.00
2018-11-01T12:43:39.189Z,97282.00
2018-11-01T12:47:42.106Z,97279.00
2018-11-01T12:51:44.432Z,97307.00
2018-11-01T12:55:46.743Z,97325.00
2018-11-01T12:59:49.075Z,97339.00
2018-11-01T13:03:51.451Z,97339.00
2018-11-01T13:07:53.851Z,97351.00
2018-11-01T13:11:56.163Z,97337.00
2018-11-01T13:17:01.482Z,97337.00
2018-11-01T13:21:04.168Z,97345.00
2018-11-01T13:25:07.997Z,97358.00
2018-11-01T13:29:10.319Z,97367.00
2018-11-01T13:33:12.704Z,97375.00
2018-11-01T13:37:15.089Z,97373.00
2018-11-01T13:41:17.684Z,97364.00
2018-11-01T13:45:19.964Z,97360.00
2018-11-01T13:49:22.263Z,97367.00
2018-11-01T13:53:24.639Z,97358.00
2018-11-01T13:57:26.932Z,97368.00
2018-11-01T14:01:29.257Z,97380.00
2018-11-01T14:05:31.582Z,97381.00
2018-11-01T14:09:33.882Z,97386.00
2018-11-01T14:13:36.418Z,97397.00
2018-11-01T14:17:39.092Z,97391.00
2018-11-01T14:21:41.368Z,97414.00
2018-11-01T14:25:43.703Z,97397.00
2018-11-01T14:29:45.982Z,97393.00
2018-11-01T14:33:48.334Z,97398.00
2018-11-01T14:37:50.688Z,97406.00
2018-11-01T14:41:52.967Z,97407.00
2018-11-01T14:45:55.343Z,97379.00
2018-11-01T14:49:57.660Z,97382.00
2018-11-01T14:54:00.637Z,97394.00
2018-11-01T14:58:03.658Z,97392.00
2018-11-01T15:02:04.732Z,97398.00
2018-11-01T15:06:07.103Z,97401.00
2018-11-01T15:10:11.122Z,97411.00
2018-11-01T15:14:13.395Z,97422.00
2018-11-01T15:18:15.718Z,97401.00
2018-11-01T15:22:18.115Z,97392.00
2018-11-01T15:26:20.538Z,97403.00
2018-11-01T15:30:22.794Z,97386.00
2018-11-01T15:34:25.120Z,97409.00
2018-11-01T15:38:27.440Z,97406.00
2018-11-01T15:42:29.982Z,97410.00
2018-11-01T15:46:32.431Z,97403.00
2018-11-01T15:50:34.814Z,97408.00
2018-11-01T15:54:37.137Z,97405.00
2018-11-01T15:58:39.597Z,97411.00
2018-11-01T16:02:43.029Z,97410.00
2018-11-01T16:06:45.318Z,97392.00
2018-11-01T16:10:47.725Z,97399.00
2018-11-01T16:14:50.173Z,97389.00
2018-11-01T16:18:52.564Z,97406.00
2018-11-01T16:22:54.944Z,97399.00
2018-11-01T16:26:57.415Z,97400.00
2018-11-01T16:30:59.818Z,97420.00
2018-11-01T16:35:02.213Z,97437.00
2018-11-01T16:39:07.974Z,97434.00
2018-11-01T16:43:10.420Z,97441.00
2018-11-01T16:47:13.708Z,97435.00
2018-11-01T16:51:16.109Z,97423.00
2018-11-01T16:55:18.668Z,97425.00
2018-11-01T16:59:21.078Z,97426.00
2018-11-01T17:03:23.486Z,97434.00
2018-11-01T17:07:25.884Z,97444.00
2018-11-01T17:11:28.344Z,97446.00
2018-11-01T17:15:30.782Z,97456.00
2018-11-01T17:19:33.122Z,97474.00
2018-11-01T17:23:35.561Z,97477.00
2018-11-01T17:27:37.988Z,97476.00
2018-11-01T17:31:40.374Z,97479.00
2018-11-01T17:35:42.758Z,97492.00
2018-11-01T17:39:45.083Z,97493.00
2018-11-01T17:43:47.629Z,97505.00
2018-11-01T17:47:50.822Z,97517.00
2018-11-01T17:51:53.896Z,97505.00
2018-11-01T17:55:56.192Z,97521.00
2018-11-01T17:59:59.552Z,97535.00
2018-11-01T18:04:01.883Z,97533.00
2018-11-01T18:08:04.259Z,97548.00
2018-11-01T18:12:06.611Z,97551.00
2018-11-01T18:16:09.006Z,97562.00
2018-11-01T18:20:12.662Z,97571.00
2018-11-01T18:24:15.222Z,97566.00
2018-11-01T18:28:18.553Z,97550.00
2018-11-01T18:32:21.866Z,97551.00
2018-11-01T18:36:25.393Z,97569.00
2018-11-01T18:40:27.825Z,97577.00
2018-11-01T18:44:30.186Z,97580.00
2018-11-01T18:48:32.620Z,97592.00
2018-11-01T18:52:35.086Z,97597.00
2018-11-01T18:56:37.723Z,97595.00
2018-11-01T19:00:40.225Z,97580.00
2018-11-01T19:04:42.470Z,97578.00
2018-11-01T19:08:44.831Z,97577.00
2018-11-01T19:12:47.160Z,97586.00
2018-11-01T19:16:49.496Z,97593.00
2018-11-01T19:20:52.459Z,97612.00
2018-11-01T19:24:54.860Z,97610.00
2018-11-01T19:28:57.342Z,97617.00
2018-11-01T19:32:59.825Z,97609.00
2018-11-01T19:37:02.236Z,97607.00
2018-11-01T19:41:04.891Z,97615.00
2018-11-01T19:45:07.422Z,97624.00
2018-11-01T19:49:09.832Z,97626.00
2018-11-01T19:53:12.173Z,97623.00
2018-11-01T19:57:14.661Z,97605.00
2018-11-01T20:01:17.227Z,97614.00
2018-11-01T20:05:19.633Z,97623.00
2018-11-01T20:09:22.081Z,97626.00
2018-11-01T20:13:24.710Z,97636.00
2018-11-01T20:17:27.747Z,97633.00
2018-11-01T20:21:30.298Z,97643.00
2018-11-01T20:25:32.796Z,97641.00
2018-11-01T20:29:35.075Z,97647.00
2018-11-01T20:33:37.606Z,97670.00
2018-11-01T20:37:40.569Z,97675.00
2018-11-01T20:41:43.551Z,97689.00
2018-11-01T20:45:45.957Z,97706.00
2018-11-01T20:49:48.330Z,97701.00
2018-11-01T20:53:51.331Z,97689.00
2018-11-01T20:57:53.830Z,97692.00
2018-11-01T21:01:56.054Z,97685.00
2018-11-01T21:05:59.278Z,97687.00
2018-11-01T21:10:01.595Z,97671.00
2018-11-01T21:14:04.075Z,97664.00
2018-11-01T21:18:06.460Z,97671.00
2018-11-01T21:22:10.115Z,97678.00
2018-11-01T21:26:12.879Z,97684.00
2018-11-01T21:30:15.229Z,97690.00
2018-11-01T21:34:17.776Z,97692.00
2018-11-01T21:38:20.106Z,97695.00
2018-11-01T21:42:22.581Z,97706.00
2018-11-01T21:46:24.889Z,97707.00
2018-11-01T21:50:27.209Z,97706.00
2018-11-01T21:54:29.585Z,97713.00
2018-11-01T21:58:31.961Z,97718.00
2018-11-01T22:02:34.464Z,97716.00
2018-11-01T22:06:36.758Z,97705.00
2018-11-01T22:10:39.224Z,97705.00
2018-11-01T22:14:41.545Z,97714.00
2018-11-01T22:18:47.451Z,97702.00
2018-11-01T22:22:49.833Z,97704.00
2018-11-01T22:26:52.203Z,97713.00
2018-11-01T22:30:54.514Z,97728.00
2018-11-01T22:34:56.950Z,97732.00
2018-11-01T22:38:59.286Z,97739.00
2018-11-01T22:43:01.737Z,97739.00
2018-11-01T22:47:04.404Z,97735.00
2018-11-01T22:51:07.036Z,97731.00
2018-11-01T22:55:10.517Z,97741.00
2018-11-01T22:59:12.858Z,97735.00
2018-11-01T23:03:15.253Z,97736.00
2018-11-01T23:07:17.639Z,97726.00
2018-11-01T23:11:20.021Z,97707.00
2018-11-01T23:15:22.324Z,97706.00
2018-11-01T23:19:24.749Z,97703.00
2018-11-01T23:23:27.444Z,97702.00
2018-11-01T23:27:34.100Z,97696.00
2018-11-01T23:31:37.223Z,97698.00
2018-11-01T23:35:39.858Z,97693.00
2018-11-01T23:39:47.839Z,97712.00
2018-11-01T23:43:55.928Z,97720.00
2018-11-01T23:47:59.676Z,97732.00
2018-11-01T23:52:06.273Z,97735.00
2018-11-01T23:56:08.603Z,97760.00
